sensor_id;sensor_type;location;lat;lon;timestamp;P1;durP1;ratioP1;P2;durP2;ratioP2
43682;SDS011;29285;52.128;21.060;2023-07-13T00:00:03;7.90;;;7.20;;
43682;SDS011;29285;52.128;21.060;2023-07-13T00:05:30;8.40;;;7.50;;
43682;SDS011;29285;52.128;21.060;2023-07-13T00:10:31;8.60;;;7.80;;
43682;SDS011;29285;52.128;21.060;2023-07-13T00:15:32;8.10;;;7.30;;
43682;SDS011;29285;52.128;21.060;2023-07-13T00:20:33;9.10;;;7.60;;
43682;SDS011;29285;52.128;21.060;2023-07-13T00:25:34;8.50;;;7.70;;
43682;SDS011;29285;52.128;21.060;2023-07-13T00:30:35;10.40;;;7.50;;
43682;SDS011;29285;52.128;21.060;2023-07-13T00:35:36;11.00;;;8.10;;
43682;SDS011;29285;52.128;21.060;2023-07-13T00:40:38;11.00;;;8.60;;
43682;SDS011;29285;52.128;21.060;2023-07-13T00:50:44;9.50;;;8.40;;
43682;SDS011;29285;52.128;21.060;2023-07-13T00:55:48;9.70;;;8.70;;
43682;SDS011;29285;52.128;21.060;2023-07-13T01:00:51;9.50;;;8.30;;
43682;SDS011;29285;52.128;21.060;2023-07-13T01:05:53;10.70;;;9.10;;
43682;SDS011;29285;52.128;21.060;2023-07-13T01:10:55;10.00;;;9.00;;
43682;SDS011;29285;52.128;21.060;2023-07-13T01:15:58;10.50;;;8.30;;
43682;SDS011;29285;52.128;21.060;2023-07-13T01:21:04;9.30;;;8.40;;
43682;SDS011;29285;52.128;21.060;2023-07-13T01:26:06;9.20;;;8.20;;
43682;SDS011;29285;52.128;21.060;2023-07-13T01:31:07;9.10;;;7.60;;
43682;SDS011;29285;52.128;21.060;2023-07-13T01:36:10;10.40;;;9.20;;
43682;SDS011;29285;52.128;21.060;2023-07-13T01:41:12;11.10;;;8.60;;
43682;SDS011;29285;52.128;21.060;2023-07-13T01:46:16;13.20;;;9.10;;
43682;SDS011;29285;52.128;21.060;2023-07-13T01:51:17;9.90;;;8.90;;
43682;SDS011;29285;52.128;21.060;2023-07-13T01:56:20;10.00;;;9.00;;
43682;SDS011;29285;52.128;21.060;2023-07-13T02:01:21;10.40;;;9.30;;
43682;SDS011;29285;52.128;21.060;2023-07-13T02:06:22;9.80;;;8.80;;
43682;SDS011;29285;52.128;21.060;2023-07-13T02:11:23;9.60;;;8.70;;
43682;SDS011;29285;52.128;21.060;2023-07-13T02:16:25;10.60;;;9.00;;
43682;SDS011;29285;52.128;21.060;2023-07-13T02:21:29;10.10;;;9.00;;
43682;SDS011;29285;52.128;21.060;2023-07-13T02:26:30;10.80;;;9.70;;
43682;SDS011;29285;52.128;21.060;2023-07-13T02:31:31;10.70;;;9.40;;
43682;SDS011;29285;52.128;21.060;2023-07-13T02:36:32;11.40;;;9.20;;
43682;SDS011;29285;52.128;21.060;2023-07-13T02:41:34;12.80;;;9.60;;
43682;SDS011;29285;52.128;21.060;2023-07-13T02:46:36;12.70;;;8.80;;
43682;SDS011;29285;52.128;21.060;2023-07-13T02:51:37;10.00;;;9.00;;
43682;SDS011;29285;52.128;21.060;2023-07-13T02:56:38;10.50;;;9.40;;
43682;SDS011;29285;52.128;21.060;2023-07-13T03:01:40;13.40;;;10.70;;
43682;SDS011;29285;52.128;21.060;2023-07-13T03:06:41;12.50;;;10.40;;
43682;SDS011;29285;52.128;21.060;2023-07-13T03:11:42;11.70;;;9.80;;
43682;SDS011;29285;52.128;21.060;2023-07-13T03:16:43;12.00;;;10.70;;
43682;SDS011;29285;52.128;21.060;2023-07-13T03:21:45;13.00;;;10.40;;
43682;SDS011;29285;52.128;21.060;2023-07-13T03:26:46;10.20;;;9.20;;
43682;SDS011;29285;52.128;21.060;2023-07-13T03:31:48;11.80;;;10.00;;
43682;SDS011;29285;52.128;21.060;2023-07-13T03:36:49;11.80;;;9.70;;
43682;SDS011;29285;52.128;21.060;2023-07-13T03:41:50;11.70;;;10.10;;
43682;SDS011;29285;52.128;21.060;2023-07-13T03:46:51;11.70;;;9.60;;
43682;SDS011;29285;52.128;21.060;2023-07-13T03:51:52;15.10;;;11.00;;
43682;SDS011;29285;52.128;21.060;2023-07-13T03:56:53;12.70;;;11.20;;
43682;SDS011;29285;52.128;21.060;2023-07-13T04:01:54;12.40;;;10.90;;
43682;SDS011;29285;52.128;21.060;2023-07-13T04:06:56;12.50;;;10.60;;
43682;SDS011;29285;52.128;21.060;2023-07-13T04:11:58;13.90;;;10.90;;
43682;SDS011;29285;52.128;21.060;2023-07-13T04:17:00;12.80;;;10.60;;
43682;SDS011;29285;52.128;21.060;2023-07-13T04:22:01;11.70;;;10.50;;
43682;SDS011;29285;52.128;21.060;2023-07-13T04:27:02;14.70;;;13.20;;
43682;SDS011;29285;52.128;21.060;2023-07-13T04:32:03;11.80;;;10.70;;
43682;SDS011;29285;52.128;21.060;2023-07-13T04:37:05;13.50;;;12.10;;
43682;SDS011;29285;52.128;21.060;2023-07-13T04:42:06;14.00;;;12.30;;
43682;SDS011;29285;52.128;21.060;2023-07-13T04:47:07;14.30;;;12.00;;
43682;SDS011;29285;52.128;21.060;2023-07-13T04:52:08;14.80;;;11.40;;
43682;SDS011;29285;52.128;21.060;2023-07-13T04:57:09;12.50;;;11.00;;
43682;SDS011;29285;52.128;21.060;2023-07-13T05:02:10;13.90;;;11.70;;
43682;SDS011;29285;52.128;21.060;2023-07-13T05:07:10;13.20;;;11.80;;
43682;SDS011;29285;52.128;21.060;2023-07-13T05:12:11;15.30;;;11.60;;
43682;SDS011;29285;52.128;21.060;2023-07-13T05:17:13;13.00;;;11.70;;
43682;SDS011;29285;52.128;21.060;2023-07-13T05:22:14;13.90;;;11.40;;
43682;SDS011;29285;52.128;21.060;2023-07-13T05:27:15;15.30;;;12.40;;
43682;SDS011;29285;52.128;21.060;2023-07-13T05:32:17;14.30;;;12.70;;
43682;SDS011;29285;52.128;21.060;2023-07-13T05:37:18;12.20;;;10.90;;
43682;SDS011;29285;52.128;21.060;2023-07-13T05:42:19;14.10;;;11.30;;
43682;SDS011;29285;52.128;21.060;2023-07-13T05:47:21;11.20;;;9.90;;
43682;SDS011;29285;52.128;21.060;2023-07-13T05:52:22;12.90;;;11.60;;
43682;SDS011;29285;52.128;21.060;2023-07-13T05:57:23;14.30;;;12.70;;
43682;SDS011;29285;52.128;21.060;2023-07-13T06:02:24;12.90;;;11.60;;
43682;SDS011;29285;52.128;21.060;2023-07-13T06:07:27;14.90;;;11.20;;
43682;SDS011;29285;52.128;21.060;2023-07-13T06:12:28;13.30;;;11.70;;
43682;SDS011;29285;52.128;21.060;2023-07-13T06:17:29;15.60;;;13.80;;
43682;SDS011;29285;52.128;21.060;2023-07-13T06:22:30;15.50;;;13.10;;
43682;SDS011;29285;52.128;21.060;2023-07-13T06:27:31;17.90;;;12.30;;
43682;SDS011;29285;52.128;21.060;2023-07-13T06:32:32;14.80;;;11.60;;
43682;SDS011;29285;52.128;21.060;2023-07-13T06:37:33;14.90;;;13.40;;
43682;SDS011;29285;52.128;21.060;2023-07-13T06:42:34;13.90;;;12.10;;
43682;SDS011;29285;52.128;21.060;2023-07-13T06:47:35;13.20;;;11.40;;
43682;SDS011;29285;52.128;21.060;2023-07-13T06:52:37;14.60;;;12.60;;
43682;SDS011;29285;52.128;21.060;2023-07-13T06:57:38;12.00;;;10.70;;
43682;SDS011;29285;52.128;21.060;2023-07-13T07:02:39;9.10;;;8.20;;
43682;SDS011;29285;52.128;21.060;2023-07-13T07:07:41;9.50;;;7.70;;
43682;SDS011;29285;52.128;21.060;2023-07-13T07:12:42;11.50;;;7.60;;
43682;SDS011;29285;52.128;21.060;2023-07-13T07:17:43;8.80;;;7.70;;
43682;SDS011;29285;52.128;21.060;2023-07-13T07:22:44;8.40;;;6.10;;
43682;SDS011;29285;52.128;21.060;2023-07-13T07:27:45;8.10;;;7.10;;
43682;SDS011;29285;52.128;21.060;2023-07-13T07:32:46;6.10;;;5.60;;
43682;SDS011;29285;52.128;21.060;2023-07-13T07:37:47;5.70;;;4.70;;
43682;SDS011;29285;52.128;21.060;2023-07-13T07:42:48;9.50;;;5.90;;
43682;SDS011;29285;52.128;21.060;2023-07-13T07:47:49;6.40;;;5.40;;
43682;SDS011;29285;52.128;21.060;2023-07-13T07:52:50;7.30;;;5.00;;
43682;SDS011;29285;52.128;21.060;2023-07-13T07:57:52;4.50;;;4.00;;
43682;SDS011;29285;52.128;21.060;2023-07-13T08:02:53;5.00;;;4.30;;
43682;SDS011;29285;52.128;21.060;2023-07-13T08:07:54;7.80;;;4.60;;
43682;SDS011;29285;52.128;21.060;2023-07-13T08:12:55;5.60;;;4.00;;
43682;SDS011;29285;52.128;21.060;2023-07-13T08:17:57;7.20;;;4.60;;
43682;SDS011;29285;52.128;21.060;2023-07-13T08:22:58;5.50;;;4.10;;
43682;SDS011;29285;52.128;21.060;2023-07-13T08:27:59;5.20;;;4.70;;
43682;SDS011;29285;52.128;21.060;2023-07-13T08:33:00;5.20;;;4.70;;
43682;SDS011;29285;52.128;21.060;2023-07-13T08:38:01;8.40;;;6.50;;
43682;SDS011;29285;52.128;21.060;2023-07-13T08:43:02;7.20;;;5.80;;
43682;SDS011;29285;52.128;21.060;2023-07-13T08:48:05;7.00;;;6.40;;
43682;SDS011;29285;52.128;21.060;2023-07-13T08:53:12;9.10;;;6.90;;
43682;SDS011;29285;52.128;21.060;2023-07-13T08:58:16;8.90;;;8.00;;
43682;SDS011;29285;52.128;21.060;2023-07-13T09:13:43;8.70;;;7.90;;
43682;SDS011;29285;52.128;21.060;2023-07-13T09:18:49;9.50;;;8.70;;
43682;SDS011;29285;52.128;21.060;2023-07-13T09:23:53;9.40;;;8.50;;
43682;SDS011;29285;52.128;21.060;2023-07-13T09:29:11;9.70;;;8.60;;
43682;SDS011;29285;52.128;21.060;2023-07-13T09:34:20;8.70;;;7.90;;
43682;SDS011;29285;52.128;21.060;2023-07-13T09:44:29;7.80;;;6.80;;
43682;SDS011;29285;52.128;21.060;2023-07-13T09:49:36;8.50;;;7.50;;
43682;SDS011;29285;52.128;21.060;2023-07-13T09:54:38;8.30;;;7.60;;
43682;SDS011;29285;52.128;21.060;2023-07-13T09:59:46;8.00;;;7.30;;
43682;SDS011;29285;52.128;21.060;2023-07-13T10:04:54;8.90;;;8.00;;
43682;SDS011;29285;52.128;21.060;2023-07-13T10:09:59;8.00;;;7.20;;
43682;SDS011;29285;52.128;21.060;2023-07-13T10:15:02;7.40;;;6.60;;
43682;SDS011;29285;52.128;21.060;2023-07-13T10:20:05;9.60;;;7.40;;
43682;SDS011;29285;52.128;21.060;2023-07-13T10:25:18;8.90;;;6.20;;
43682;SDS011;29285;52.128;21.060;2023-07-13T10:30:24;4.50;;;4.10;;
43682;SDS011;29285;52.128;21.060;2023-07-13T10:35:30;8.20;;;5.70;;
43682;SDS011;29285;52.128;21.060;2023-07-13T10:40:35;10.90;;;4.80;;
43682;SDS011;29285;52.128;21.060;2023-07-13T10:45:39;9.20;;;5.10;;
43682;SDS011;29285;52.128;21.060;2023-07-13T10:50:43;7.20;;;4.70;;
43682;SDS011;29285;52.128;21.060;2023-07-13T11:06:11;5.50;;;4.90;;
43682;SDS011;29285;52.128;21.060;2023-07-13T11:27:19;7.00;;;4.80;;
43682;SDS011;29285;52.128;21.060;2023-07-13T11:32:31;12.90;;;6.50;;
43682;SDS011;29285;52.128;21.060;2023-07-13T11:37:32;10.50;;;7.10;;
43682;SDS011;29285;52.128;21.060;2023-07-13T11:42:34;7.10;;;6.40;;
43682;SDS011;29285;52.128;21.060;2023-07-13T11:47:39;10.10;;;7.80;;
43682;SDS011;29285;52.128;21.060;2023-07-13T11:52:41;10.00;;;8.00;;
43682;SDS011;29285;52.128;21.060;2023-07-13T11:58:00;8.90;;;7.50;;
43682;SDS011;29285;52.128;21.060;2023-07-13T12:03:03;16.60;;;13.40;;
43682;SDS011;29285;52.128;21.060;2023-07-13T12:08:09;10.10;;;9.10;;
43682;SDS011;29285;52.128;21.060;2023-07-13T12:13:13;8.20;;;7.20;;
43682;SDS011;29285;52.128;21.060;2023-07-13T12:18:18;11.20;;;8.80;;
43682;SDS011;29285;52.128;21.060;2023-07-13T12:28:35;10.50;;;8.80;;
43682;SDS011;29285;52.128;21.060;2023-07-13T12:33:39;10.70;;;9.70;;
43682;SDS011;29285;52.128;21.060;2023-07-13T12:38:44;10.70;;;9.00;;
43682;SDS011;29285;52.128;21.060;2023-07-13T12:43:47;8.30;;;7.20;;
43682;SDS011;29285;52.128;21.060;2023-07-13T12:48:49;14.10;;;8.60;;
43682;SDS011;29285;52.128;21.060;2023-07-13T12:54:06;12.20;;;9.80;;
43682;SDS011;29285;52.128;21.060;2023-07-13T12:59:19;11.60;;;9.60;;
43682;SDS011;29285;52.128;21.060;2023-07-13T13:04:21;13.90;;;9.50;;
43682;SDS011;29285;52.128;21.060;2023-07-13T13:09:23;10.70;;;9.20;;
43682;SDS011;29285;52.128;21.060;2023-07-13T13:14:24;11.70;;;9.00;;
43682;SDS011;29285;52.128;21.060;2023-07-13T13:19:27;8.40;;;7.60;;
43682;SDS011;29285;52.128;21.060;2023-07-13T13:24:29;9.00;;;8.10;;
43682;SDS011;29285;52.128;21.060;2023-07-13T13:29:39;8.80;;;6.90;;
43682;SDS011;29285;52.128;21.060;2023-07-13T13:34:41;10.40;;;8.50;;
43682;SDS011;29285;52.128;21.060;2023-07-13T13:39:43;10.20;;;9.30;;
43682;SDS011;29285;52.128;21.060;2023-07-13T13:44:45;9.50;;;8.30;;
43682;SDS011;29285;52.128;21.060;2023-07-13T13:49:46;9.60;;;8.60;;
43682;SDS011;29285;52.128;21.060;2023-07-13T13:54:47;10.60;;;9.50;;
43682;SDS011;29285;52.128;21.060;2023-07-13T13:59:48;12.90;;;8.70;;
43682;SDS011;29285;52.128;21.060;2023-07-13T14:04:50;9.30;;;8.40;;
43682;SDS011;29285;52.128;21.060;2023-07-13T14:09:57;11.20;;;8.80;;
43682;SDS011;29285;52.128;21.060;2023-07-13T14:15:00;8.40;;;7.60;;
43682;SDS011;29285;52.128;21.060;2023-07-13T14:20:02;8.00;;;7.00;;
43682;SDS011;29285;52.128;21.060;2023-07-13T14:25:05;9.70;;;7.20;;
43682;SDS011;29285;52.128;21.060;2023-07-13T14:30:18;8.50;;;7.10;;
43682;SDS011;29285;52.128;21.060;2023-07-13T14:35:21;7.30;;;6.70;;
43682;SDS011;29285;52.128;21.060;2023-07-13T14:40:28;7.50;;;6.40;;
43682;SDS011;29285;52.128;21.060;2023-07-13T14:45:31;11.50;;;6.30;;
43682;SDS011;29285;52.128;21.060;2023-07-13T14:50:32;6.70;;;5.80;;
43682;SDS011;29285;52.128;21.060;2023-07-13T14:55:33;5.70;;;5.00;;
43682;SDS011;29285;52.128;21.060;2023-07-13T15:00:36;5.60;;;5.10;;
43682;SDS011;29285;52.128;21.060;2023-07-13T15:05:38;6.20;;;5.70;;
43682;SDS011;29285;52.128;21.060;2023-07-13T15:10:41;5.90;;;5.40;;
43682;SDS011;29285;52.128;21.060;2023-07-13T15:15:44;5.30;;;4.90;;
43682;SDS011;29285;52.128;21.060;2023-07-13T15:20:51;5.80;;;5.20;;
43682;SDS011;29285;52.128;21.060;2023-07-13T15:25:56;6.30;;;5.70;;
43682;SDS011;29285;52.128;21.060;2023-07-13T15:30:58;7.20;;;5.40;;
43682;SDS011;29285;52.128;21.060;2023-07-13T15:35:59;6.70;;;5.40;;
43682;SDS011;29285;52.128;21.060;2023-07-13T15:41:00;6.00;;;5.50;;
43682;SDS011;29285;52.128;21.060;2023-07-13T15:46:01;6.20;;;5.40;;
43682;SDS011;29285;52.128;21.060;2023-07-13T15:51:03;6.00;;;5.40;;
43682;SDS011;29285;52.128;21.060;2023-07-13T15:56:14;6.70;;;5.80;;
43682;SDS011;29285;52.128;21.060;2023-07-13T16:01:20;7.40;;;5.70;;
43682;SDS011;29285;52.128;21.060;2023-07-13T16:06:22;10.00;;;5.80;;
43682;SDS011;29285;52.128;21.060;2023-07-13T16:11:28;6.20;;;5.60;;
43682;SDS011;29285;52.128;21.060;2023-07-13T16:16:34;6.90;;;6.20;;
43682;SDS011;29285;52.128;21.060;2023-07-13T16:21:39;7.80;;;7.00;;
43682;SDS011;29285;52.128;21.060;2023-07-13T16:26:44;7.40;;;5.60;;
43682;SDS011;29285;52.128;21.060;2023-07-13T16:31:55;7.20;;;6.50;;
43682;SDS011;29285;52.128;21.060;2023-07-13T16:37:15;9.30;;;7.40;;
43682;SDS011;29285;52.128;21.060;2023-07-13T16:42:37;7.20;;;6.50;;
43682;SDS011;29285;52.128;21.060;2023-07-13T16:47:38;9.60;;;8.70;;
43682;SDS011;29285;52.128;21.060;2023-07-13T16:52:42;7.30;;;6.70;;
43682;SDS011;29285;52.128;21.060;2023-07-13T16:57:44;7.80;;;7.00;;
43682;SDS011;29285;52.128;21.060;2023-07-13T17:02:46;7.80;;;7.20;;
43682;SDS011;29285;52.128;21.060;2023-07-13T17:07:48;9.40;;;6.80;;
43682;SDS011;29285;52.128;21.060;2023-07-13T17:12:51;8.70;;;7.80;;
43682;SDS011;29285;52.128;21.060;2023-07-13T17:23:25;8.50;;;7.00;;
43682;SDS011;29285;52.128;21.060;2023-07-13T17:28:26;8.80;;;7.90;;
43682;SDS011;29285;52.128;21.060;2023-07-13T17:33:33;20.40;;;7.60;;
43682;SDS011;29285;52.128;21.060;2023-07-13T17:38:37;7.40;;;6.70;;
43682;SDS011;29285;52.128;21.060;2023-07-13T17:43:42;11.70;;;7.60;;
43682;SDS011;29285;52.128;21.060;2023-07-13T17:53:46;9.80;;;6.80;;
43682;SDS011;29285;52.128;21.060;2023-07-13T17:58:48;8.00;;;6.90;;
43682;SDS011;29285;52.128;21.060;2023-07-13T18:03:50;8.00;;;7.20;;
43682;SDS011;29285;52.128;21.060;2023-07-13T18:08:54;7.80;;;7.00;;
43682;SDS011;29285;52.128;21.060;2023-07-13T18:13:59;9.00;;;7.60;;
43682;SDS011;29285;52.128;21.060;2023-07-13T18:19:00;8.30;;;7.50;;
43682;SDS011;29285;52.128;21.060;2023-07-13T18:24:02;12.70;;;8.10;;
43682;SDS011;29285;52.128;21.060;2023-07-13T18:29:05;10.40;;;7.30;;
43682;SDS011;29285;52.128;21.060;2023-07-13T18:34:06;8.80;;;7.20;;
43682;SDS011;29285;52.128;21.060;2023-07-13T18:39:13;9.60;;;7.60;;
43682;SDS011;29285;52.128;21.060;2023-07-13T18:44:16;8.10;;;7.30;;
43682;SDS011;29285;52.128;21.060;2023-07-13T18:49:17;8.60;;;7.80;;
43682;SDS011;29285;52.128;21.060;2023-07-13T18:54:18;8.40;;;7.50;;
43682;SDS011;29285;52.128;21.060;2023-07-13T18:59:21;9.10;;;7.60;;
43682;SDS011;29285;52.128;21.060;2023-07-13T19:04:28;8.80;;;7.30;;
43682;SDS011;29285;52.128;21.060;2023-07-13T19:09:32;7.80;;;7.10;;
43682;SDS011;29285;52.128;21.060;2023-07-13T19:14:33;8.00;;;7.20;;
43682;SDS011;29285;52.128;21.060;2023-07-13T19:19:34;8.60;;;7.80;;
43682;SDS011;29285;52.128;21.060;2023-07-13T19:24:35;8.10;;;7.40;;
43682;SDS011;29285;52.128;21.060;2023-07-13T19:29:36;8.20;;;7.40;;
43682;SDS011;29285;52.128;21.060;2023-07-13T19:34:38;10.00;;;7.80;;
43682;SDS011;29285;52.128;21.060;2023-07-13T19:39:39;7.80;;;7.10;;
43682;SDS011;29285;52.128;21.060;2023-07-13T19:44:42;9.00;;;7.50;;
43682;SDS011;29285;52.128;21.060;2023-07-13T19:49:43;9.00;;;8.00;;
43682;SDS011;29285;52.128;21.060;2023-07-13T19:54:44;8.20;;;6.50;;
43682;SDS011;29285;52.128;21.060;2023-07-13T19:59:48;7.20;;;6.60;;
43682;SDS011;29285;52.128;21.060;2023-07-13T20:04:52;8.30;;;7.20;;
43682;SDS011;29285;52.128;21.060;2023-07-13T20:09:53;8.10;;;7.30;;
43682;SDS011;29285;52.128;21.060;2023-07-13T20:14:55;9.10;;;6.50;;
43682;SDS011;29285;52.128;21.060;2023-07-13T20:19:57;7.40;;;6.70;;
43682;SDS011;29285;52.128;21.060;2023-07-13T20:24:58;7.40;;;6.70;;
43682;SDS011;29285;52.128;21.060;2023-07-13T20:30:00;8.10;;;6.70;;
43682;SDS011;29285;52.128;21.060;2023-07-13T20:35:00;8.20;;;6.40;;
43682;SDS011;29285;52.128;21.060;2023-07-13T20:40:01;8.60;;;6.50;;
43682;SDS011;29285;52.128;21.060;2023-07-13T20:45:11;7.40;;;6.10;;
43682;SDS011;29285;52.128;21.060;2023-07-13T20:50:20;7.80;;;6.90;;
43682;SDS011;29285;52.128;21.060;2023-07-13T20:55:25;7.90;;;6.40;;
43682;SDS011;29285;52.128;21.060;2023-07-13T21:05:40;7.20;;;6.50;;
43682;SDS011;29285;52.128;21.060;2023-07-13T21:10:42;7.70;;;6.40;;
43682;SDS011;29285;52.128;21.060;2023-07-13T21:15:45;7.20;;;6.50;;
43682;SDS011;29285;52.128;21.060;2023-07-13T21:20:48;8.10;;;7.10;;
43682;SDS011;29285;52.128;21.060;2023-07-13T21:25:51;9.40;;;6.70;;
43682;SDS011;29285;52.128;21.060;2023-07-13T21:30:54;8.60;;;7.00;;
43682;SDS011;29285;52.128;21.060;2023-07-13T21:35:59;7.70;;;6.90;;
43682;SDS011;29285;52.128;21.060;2023-07-13T21:41:06;7.30;;;6.60;;
43682;SDS011;29285;52.128;21.060;2023-07-13T21:46:15;7.90;;;7.20;;
43682;SDS011;29285;52.128;21.060;2023-07-13T21:56:22;7.90;;;6.40;;
43682;SDS011;29285;52.128;21.060;2023-07-13T22:01:25;7.50;;;6.80;;
43682;SDS011;29285;52.128;21.060;2023-07-13T22:06:31;10.20;;;7.20;;
43682;SDS011;29285;52.128;21.060;2023-07-13T22:11:32;7.50;;;6.50;;
43682;SDS011;29285;52.128;21.060;2023-07-13T22:16:33;9.20;;;7.20;;
43682;SDS011;29285;52.128;21.060;2023-07-13T22:21:35;8.60;;;7.30;;
43682;SDS011;29285;52.128;21.060;2023-07-13T22:26:36;8.40;;;7.60;;
43682;SDS011;29285;52.128;21.060;2023-07-13T22:31:37;9.30;;;7.70;;
43682;SDS011;29285;52.128;21.060;2023-07-13T22:36:39;10.10;;;8.50;;
43682;SDS011;29285;52.128;21.060;2023-07-13T22:41:40;8.90;;;8.10;;
43682;SDS011;29285;52.128;21.060;2023-07-13T22:46:42;9.40;;;8.00;;
43682;SDS011;29285;52.128;21.060;2023-07-13T22:51:43;11.00;;;8.90;;
43682;SDS011;29285;52.128;21.060;2023-07-13T22:56:44;10.50;;;9.50;;
43682;SDS011;29285;52.128;21.060;2023-07-13T23:01:45;10.00;;;8.70;;
43682;SDS011;29285;52.128;21.060;2023-07-13T23:06:47;10.30;;;8.50;;
43682;SDS011;29285;52.128;21.060;2023-07-13T23:11:52;11.60;;;9.80;;
43682;SDS011;29285;52.128;21.060;2023-07-13T23:16:57;12.30;;;8.80;;
43682;SDS011;29285;52.128;21.060;2023-07-13T23:21:58;13.10;;;9.90;;
43682;SDS011;29285;52.128;21.060;2023-07-13T23:27:00;10.70;;;8.70;;
43682;SDS011;29285;52.128;21.060;2023-07-13T23:32:02;15.30;;;10.40;;
43682;SDS011;29285;52.128;21.060;2023-07-13T23:37:08;12.80;;;11.30;;
43682;SDS011;29285;52.128;21.060;2023-07-13T23:42:16;13.00;;;11.60;;
43682;SDS011;29285;52.128;21.060;2023-07-13T23:47:17;12.20;;;11.20;;
43682;SDS011;29285;52.128;21.060;2023-07-13T23:52:19;11.60;;;10.60;;
43682;SDS011;29285;52.128;21.060;2023-07-13T23:57:20;12.20;;;11.10;;
